createdAt,value
2019-01-17T00:00:08.093Z,2.59
2019-01-17T00:01:08.081Z,2.59
2019-01-17T00:02:07.808Z,2.59
2019-01-17T00:03:07.809Z,2.69
2019-01-17T00:04:08.021Z,2.78
2019-01-17T00:05:08.001Z,2.83
2019-01-17T00:06:07.737Z,2.85
2019-01-17T00:07:07.720Z,2.88
2019-01-17T00:08:07.701Z,2.95
2019-01-17T00:09:07.934Z,2.81
2019-01-17T00:10:07.919Z,2.91
2019-01-17T00:11:07.657Z,2.96
2019-01-17T00:12:07.881Z,2.85
2019-01-17T00:13:07.865Z,2.9
2019-01-17T00:14:07.594Z,2.96
2019-01-17T00:15:07.831Z,2.95
2019-01-17T00:16:07.813Z,2.99
2019-01-17T00:17:07.794Z,2.96
2019-01-17T00:18:07.777Z,2.9
2019-01-17T00:19:07.755Z,3.02
2019-01-17T00:20:07.739Z,3.05
2019-01-17T00:21:07.732Z,2.96
2019-01-17T00:22:07.707Z,3.08
2019-01-17T00:23:07.970Z,2.93
2019-01-17T00:24:07.702Z,2.95
2019-01-17T00:25:07.652Z,2.99
2019-01-17T00:26:07.635Z,3.01
2019-01-17T00:27:07.377Z,2.93
2019-01-17T00:28:07.604Z,2.93
2019-01-17T00:29:08.562Z,3.01
2019-01-17T00:30:07.317Z,3.01
2019-01-17T00:31:07.548Z,2.95
2019-01-17T00:32:07.537Z,2.91
2019-01-17T00:33:07.510Z,2.99
2019-01-17T00:34:07.244Z,2.88
2019-01-17T00:35:07.525Z,2.93
2019-01-17T00:36:07.500Z,2.78
2019-01-17T00:37:07.441Z,2.81
2019-01-17T00:38:07.426Z,2.93
2019-01-17T00:39:07.413Z,2.85
2019-01-17T00:40:07.403Z,2.83
2019-01-17T00:41:07.372Z,2.84
2019-01-17T00:42:07.365Z,2.78
2019-01-17T00:43:07.092Z,2.81
2019-01-17T00:44:07.326Z,2.84
2019-01-17T00:45:07.305Z,2.73
2019-01-17T00:46:07.287Z,2.8
2019-01-17T00:47:07.269Z,2.7
2019-01-17T00:48:07.250Z,2.66
2019-01-17T00:49:07.229Z,2.73
2019-01-17T00:50:07.216Z,2.67
2019-01-17T00:51:07.194Z,2.6
2019-01-17T00:52:07.178Z,2.58
2019-01-17T00:53:07.164Z,2.66
2019-01-17T00:54:11.533Z,2.59
2019-01-17T00:55:07.127Z,2.55
2019-01-17T00:56:07.112Z,2.55
2019-01-17T00:57:06.855Z,2.58
2019-01-17T00:58:06.826Z,2.59
2019-01-17T00:59:06.810Z,2.44
2019-01-17T01:00:06.787Z,2.45
2019-01-17T01:01:07.017Z,2.55
2019-01-17T01:02:07.003Z,2.55
2019-01-17T01:03:06.738Z,2.45
2019-01-17T01:04:06.965Z,2.58
2019-01-17T01:05:06.946Z,2.63
2019-01-17T01:06:06.445Z,2.58
2019-01-17T01:07:06.915Z,2.58
2019-01-17T01:08:06.897Z,2.51
2019-01-17T01:09:06.879Z,2.54
2019-01-17T01:10:06.864Z,2.44
2019-01-17T01:11:06.840Z,2.45
2019-01-17T01:12:06.822Z,2.44
2019-01-17T01:13:06.809Z,2.42
2019-01-17T01:14:06.790Z,2.4
2019-01-17T01:15:06.769Z,2.4
2019-01-17T01:16:06.754Z,2.31
2019-01-17T01:17:06.745Z,2.38
2019-01-17T01:18:06.719Z,2.34
2019-01-17T01:19:06.701Z,2.31
2019-01-17T01:20:06.434Z,2.29
2019-01-17T01:21:06.664Z,2.29
2019-01-17T01:22:06.645Z,2.26
2019-01-17T01:23:06.627Z,2.29
2019-01-17T01:24:06.360Z,2.3
2019-01-17T01:25:06.622Z,2.31
2019-01-17T01:26:06.574Z,2.24
2019-01-17T01:27:06.309Z,2.29
2019-01-17T01:28:06.539Z,2.27
2019-01-17T01:29:06.520Z,2.27
2019-01-17T01:30:06.502Z,2.29
2019-01-17T01:31:06.497Z,2.15
2019-01-17T01:32:06.467Z,2.31
2019-01-17T01:33:06.452Z,2.31
2019-01-17T01:34:06.439Z,2.3
2019-01-17T01:35:06.458Z,2.34
2019-01-17T01:36:06.399Z,2.3
2019-01-17T01:37:06.378Z,2.33
2019-01-17T01:38:06.361Z,2.33
2019-01-17T01:39:06.346Z,2.31
2019-01-17T01:40:06.324Z,2.29
2019-01-17T01:41:06.306Z,2.3
2019-01-17T01:42:06.288Z,2.33
2019-01-17T01:43:06.271Z,2.33
2019-01-17T01:44:06.256Z,2.31
2019-01-17T01:45:05.989Z,2.29
2019-01-17T01:46:06.217Z,2.29
2019-01-17T01:47:05.959Z,2.29
2019-01-17T01:48:06.184Z,2.3
2019-01-17T01:49:06.165Z,2.3
2019-01-17T01:50:06.315Z,2.3
2019-01-17T01:51:05.885Z,2.33
2019-01-17T01:52:06.116Z,2.29
2019-01-17T01:53:06.091Z,2.34
2019-01-17T01:54:06.072Z,2.33
2019-01-17T01:55:06.093Z,2.42
2019-01-17T01:56:06.036Z,2.33
2019-01-17T01:57:06.021Z,2.42
2019-01-17T01:58:06.007Z,2.34
2019-01-17T01:59:05.986Z,2.4
2019-01-17T02:00:05.724Z,2.48
2019-01-17T02:01:05.949Z,2.52
2019-01-17T02:02:05.929Z,2.6
2019-01-17T02:03:05.921Z,2.59
2019-01-17T02:04:05.894Z,2.49
2019-01-17T02:05:05.875Z,2.54
2019-01-17T02:06:05.614Z,2.51
2019-01-17T02:07:05.839Z,2.59
2019-01-17T02:08:05.822Z,2.52
2019-01-17T02:09:05.808Z,2.58
2019-01-17T02:10:05.787Z,2.55
2019-01-17T02:11:05.769Z,2.58
2019-01-17T02:12:05.759Z,2.6
2019-01-17T02:13:05.735Z,2.69
2019-01-17T02:14:05.715Z,2.62
2019-01-17T02:15:05.696Z,2.66
2019-01-17T02:16:05.682Z,2.7
2019-01-17T02:17:05.697Z,2.8
2019-01-17T02:18:05.146Z,2.8
2019-01-17T02:19:05.624Z,2.76
2019-01-17T02:20:05.607Z,2.84
2019-01-17T02:21:05.593Z,2.83
2019-01-17T02:22:05.571Z,2.85
2019-01-17T02:23:05.567Z,2.81
2019-01-17T02:24:05.536Z,2.9
2019-01-17T02:25:05.619Z,2.8
2019-01-17T02:26:05.599Z,2.83
2019-01-17T02:27:05.565Z,2.83
2019-01-17T02:28:05.217Z,2.91
2019-01-17T02:29:05.447Z,2.95
2019-01-17T02:30:05.447Z,2.96
2019-01-17T02:31:05.417Z,2.91
2019-01-17T02:32:05.397Z,2.93
2019-01-17T02:33:05.395Z,2.95
2019-01-17T02:34:05.359Z,2.98
2019-01-17T02:35:05.351Z,2.91
2019-01-17T02:36:05.328Z,2.95
2019-01-17T02:37:05.315Z,2.87
2019-01-17T02:38:05.054Z,2.9
2019-01-17T02:39:05.040Z,2.95
2019-01-17T02:40:05.023Z,2.83
2019-01-17T02:41:05.237Z,2.91
2019-01-17T02:42:05.220Z,2.91
2019-01-17T02:43:05.204Z,2.91
2019-01-17T02:44:04.936Z,2.96
2019-01-17T02:45:04.932Z,2.91
2019-01-17T02:46:04.910Z,2.99
2019-01-17T02:47:05.162Z,2.88
2019-01-17T02:48:05.116Z,2.91
2019-01-17T02:49:04.860Z,2.96
2019-01-17T02:50:05.239Z,2.93
2019-01-17T02:51:05.073Z,2.91
2019-01-17T02:52:05.049Z,2.91
2019-01-17T02:53:05.036Z,2.93
2019-01-17T02:54:05.058Z,2.91
2019-01-17T02:55:05.002Z,2.96
2019-01-17T02:56:04.980Z,2.98
2019-01-17T02:57:04.964Z,2.9
2019-01-17T02:58:05.000Z,2.84
2019-01-17T02:59:04.958Z,2.85
2019-01-17T03:00:04.950Z,2.9
2019-01-17T03:01:04.889Z,2.85
2019-01-17T03:02:04.885Z,2.95
2019-01-17T03:03:04.852Z,2.9
2019-01-17T03:04:04.841Z,2.98
2019-01-17T03:05:04.989Z,2.91
2019-01-17T03:06:04.804Z,2.91
2019-01-17T03:07:04.783Z,2.85
2019-01-17T03:08:04.524Z,2.96
2019-01-17T03:09:04.746Z,2.95
2019-01-17T03:10:04.783Z,2.91
2019-01-17T03:11:04.713Z,2.87
2019-01-17T03:12:04.698Z,2.88
2019-01-17T03:13:04.679Z,2.99
2019-01-17T03:14:04.663Z,3.01
2019-01-17T03:15:04.649Z,3.02
2019-01-17T03:16:04.627Z,3.01
2019-01-17T03:17:04.618Z,2.91
2019-01-17T03:18:04.593Z,2.93
2019-01-17T03:19:04.580Z,2.9
2019-01-17T03:20:04.575Z,2.93
2019-01-17T03:21:04.563Z,2.9
2019-01-17T03:22:04.272Z,2.96
2019-01-17T03:23:04.507Z,2.98
2019-01-17T03:24:04.241Z,2.91
2019-01-17T03:25:04.475Z,2.87
2019-01-17T03:26:04.450Z,2.91
2019-01-17T03:27:04.441Z,2.95
2019-01-17T03:28:04.176Z,2.95
2019-01-17T03:29:04.397Z,2.99
2019-01-17T03:30:04.410Z,2.9
2019-01-17T03:31:04.386Z,3.01
2019-01-17T03:32:04.364Z,2.93
2019-01-17T03:33:04.117Z,3.01
2019-01-17T03:34:04.309Z,2.96
2019-01-17T03:35:04.053Z,3.01
2019-01-17T03:36:04.285Z,3.02
2019-01-17T03:37:04.268Z,2.96
2019-01-17T03:38:04.250Z,3.02
2019-01-17T03:39:04.231Z,2.91
2019-01-17T03:40:04.221Z,2.99
2019-01-17T03:41:04.196Z,3.02
2019-01-17T03:42:03.926Z,2.93
2019-01-17T03:43:04.159Z,3.02
2019-01-17T03:44:04.158Z,2.99
2019-01-17T03:45:04.134Z,2.95
2019-01-17T03:46:04.106Z,2.96
2019-01-17T03:47:04.088Z,3.02
2019-01-17T03:48:04.077Z,2.98
2019-01-17T03:49:04.061Z,3.05
2019-01-17T03:50:04.055Z,2.99
2019-01-17T03:51:04.027Z,3.02
2019-01-17T03:52:04.009Z,2.95
2019-01-17T03:53:03.990Z,3.05
2019-01-17T03:54:03.718Z,2.99
2019-01-17T03:55:03.949Z,3.01
2019-01-17T03:56:03.942Z,3.01
2019-01-17T03:57:03.668Z,3.01
2019-01-17T03:58:03.959Z,2.99
2019-01-17T03:59:03.882Z,3.01
2019-01-17T04:00:03.890Z,2.96
2019-01-17T04:01:03.860Z,3.03
2019-01-17T04:02:03.829Z,2.91
2019-01-17T04:03:03.814Z,2.93
2019-01-17T04:04:03.801Z,3.03
2019-01-17T04:05:03.783Z,3.01
2019-01-17T04:06:03.547Z,2.95
2019-01-17T04:07:03.753Z,3.03
2019-01-17T04:08:03.737Z,3.05
2019-01-17T04:09:03.705Z,3.02
2019-01-17T04:10:03.450Z,3.03
2019-01-17T04:11:03.673Z,3.02
2019-01-17T04:12:03.664Z,3.03
2019-01-17T04:13:03.642Z,2.9
2019-01-17T04:14:03.624Z,3.03
2019-01-17T04:15:03.610Z,2.96
2019-01-17T04:16:03.586Z,2.96
2019-01-17T04:17:03.570Z,2.98
2019-01-17T04:18:03.557Z,2.93
2019-01-17T04:19:03.285Z,3.06
2019-01-17T04:20:03.277Z,2.91
2019-01-17T04:21:03.253Z,2.9
2019-01-17T04:22:03.488Z,2.96
2019-01-17T04:23:03.483Z,2.91
2019-01-17T04:24:03.199Z,2.93
2019-01-17T04:25:03.490Z,2.88
2019-01-17T04:26:03.416Z,2.91
2019-01-17T04:27:03.398Z,2.87
2019-01-17T04:28:03.385Z,2.91
2019-01-17T04:29:03.362Z,2.9
2019-01-17T04:30:03.101Z,2.99
2019-01-17T04:31:03.331Z,2.93
2019-01-17T04:32:03.314Z,2.9
2019-01-17T04:33:03.048Z,2.85
2019-01-17T04:34:03.287Z,2.9
2019-01-17T04:35:03.269Z,2.95
2019-01-17T04:36:03.245Z,2.88
2019-01-17T04:37:03.227Z,2.93
2019-01-17T04:38:03.209Z,2.84
2019-01-17T04:39:03.193Z,2.91
2019-01-17T04:40:03.222Z,2.85
2019-01-17T04:41:03.154Z,2.85
2019-01-17T04:42:03.138Z,2.93
2019-01-17T04:43:03.122Z,2.95
2019-01-17T04:44:03.106Z,2.87
2019-01-17T04:45:02.836Z,2.85
2019-01-17T04:46:03.068Z,2.84
2019-01-17T04:47:03.051Z,2.83
2019-01-17T04:48:03.045Z,2.88
2019-01-17T04:49:03.021Z,2.91
2019-01-17T04:50:03.050Z,2.77
2019-01-17T04:51:02.984Z,2.84
2019-01-17T04:52:02.972Z,2.83
2019-01-17T04:53:03.024Z,2.96
2019-01-17T04:54:02.929Z,2.84
2019-01-17T04:55:09.829Z,2.78
2019-01-17T04:56:02.956Z,2.81
2019-01-17T04:57:02.883Z,2.84
2019-01-17T04:58:02.861Z,2.8
2019-01-17T04:59:02.592Z,2.76
2019-01-17T05:00:02.833Z,2.77
2019-01-17T05:01:02.817Z,2.73
2019-01-17T05:02:02.792Z,2.69
2019-01-17T05:03:02.786Z,2.66
2019-01-17T05:04:02.769Z,2.58
2019-01-17T05:05:02.771Z,2.58
2019-01-17T05:06:02.724Z,2.52
2019-01-17T05:07:02.460Z,2.59
2019-01-17T05:08:02.688Z,2.59
2019-01-17T05:09:02.670Z,2.51
2019-01-17T05:10:02.655Z,2.55
2019-01-17T05:11:02.411Z,2.51
2019-01-17T05:12:02.623Z,2.4
2019-01-17T05:13:02.607Z,2.47
2019-01-17T05:14:02.582Z,2.48
2019-01-17T05:15:02.562Z,2.36
2019-01-17T05:16:02.548Z,2.47
2019-01-17T05:17:02.541Z,2.36
2019-01-17T05:18:02.510Z,2.44
2019-01-17T05:19:02.496Z,2.52
2019-01-17T05:20:02.636Z,2.44
2019-01-17T05:21:02.213Z,2.51
2019-01-17T05:22:02.441Z,2.58
2019-01-17T05:23:02.442Z,2.58
2019-01-17T05:24:02.412Z,2.52
2019-01-17T05:25:02.145Z,2.55
2019-01-17T05:26:02.393Z,2.54
2019-01-17T05:27:02.360Z,2.51
2019-01-17T05:28:02.349Z,2.6
2019-01-17T05:29:02.319Z,2.54
2019-01-17T05:30:02.301Z,2.62
2019-01-17T05:31:02.286Z,2.66
2019-01-17T05:32:02.287Z,2.55
2019-01-17T05:33:02.247Z,2.66
2019-01-17T05:34:02.234Z,2.65
2019-01-17T05:35:02.214Z,2.67
2019-01-17T05:36:02.200Z,2.63
2019-01-17T05:37:02.176Z,2.63
2019-01-17T05:38:01.912Z,2.65
2019-01-17T05:39:02.144Z,2.63
2019-01-17T05:40:02.123Z,2.62
2019-01-17T05:41:01.861Z,2.67
2019-01-17T05:42:02.093Z,2.66
2019-01-17T05:43:02.068Z,2.62
2019-01-17T05:44:02.054Z,2.72
2019-01-17T05:45:01.797Z,2.65
2019-01-17T05:46:02.022Z,2.73
2019-01-17T05:47:02.002Z,2.65
2019-01-17T05:48:01.989Z,2.66
2019-01-17T05:49:01.974Z,2.66
2019-01-17T05:50:01.707Z,2.69
2019-01-17T05:51:01.935Z,2.69
2019-01-17T05:52:01.944Z,2.7
2019-01-17T05:53:01.914Z,2.69
2019-01-17T05:54:01.878Z,2.78
2019-01-17T05:55:01.862Z,2.73
2019-01-17T05:56:01.843Z,2.69
2019-01-17T05:57:01.826Z,2.76
2019-01-17T05:58:01.809Z,2.72
2019-01-17T05:59:01.798Z,2.7
2019-01-17T06:00:01.529Z,2.76
2019-01-17T06:01:01.771Z,2.73
2019-01-17T06:02:01.764Z,2.77
2019-01-17T06:03:01.729Z,2.67
2019-01-17T06:04:01.707Z,2.66
2019-01-17T06:05:01.690Z,2.78
2019-01-17T06:06:01.671Z,2.66
2019-01-17T06:07:01.660Z,2.66
2019-01-17T06:08:01.635Z,2.72
2019-01-17T06:09:01.618Z,2.67
2019-01-17T06:10:01.606Z,2.76
2019-01-17T06:11:01.341Z,2.65
2019-01-17T06:12:01.563Z,2.73
2019-01-17T06:13:01.546Z,2.67
2019-01-17T06:14:01.531Z,2.72
2019-01-17T06:15:01.521Z,2.73
2019-01-17T06:16:01.497Z,2.81
2019-01-17T06:17:01.475Z,2.73
2019-01-17T06:18:01.217Z,2.65
2019-01-17T06:19:01.441Z,2.69
2019-01-17T06:20:01.178Z,2.66
2019-01-17T06:21:01.413Z,2.73
2019-01-17T06:22:01.391Z,2.81
2019-01-17T06:23:01.404Z,2.73
2019-01-17T06:24:01.358Z,2.66
2019-01-17T06:25:01.349Z,2.69
2019-01-17T06:26:01.322Z,2.72
2019-01-17T06:27:01.303Z,2.69
2019-01-17T06:28:01.386Z,2.67
2019-01-17T06:29:01.267Z,2.72
2019-01-17T06:30:01.289Z,2.66
2019-01-17T06:31:01.244Z,2.67
2019-01-17T06:32:01.215Z,2.73
2019-01-17T06:33:01.198Z,2.77
2019-01-17T06:34:01.190Z,2.62
2019-01-17T06:35:01.172Z,2.72
2019-01-17T06:36:01.158Z,2.63
2019-01-17T06:37:01.129Z,2.63
2019-01-17T06:38:01.120Z,2.54
2019-01-17T06:39:01.104Z,2.58
2019-01-17T06:40:01.078Z,2.54
2019-01-17T06:41:01.073Z,2.54
2019-01-17T06:42:01.041Z,2.55
2019-01-17T06:43:01.027Z,2.55
2019-01-17T06:44:01.010Z,2.63
2019-01-17T06:45:00.743Z,2.55
2019-01-17T06:46:00.970Z,2.55
2019-01-17T06:47:00.951Z,2.55
2019-01-17T06:48:00.958Z,2.48
2019-01-17T06:49:00.722Z,2.49
2019-01-17T06:50:00.651Z,2.52
2019-01-17T06:51:00.635Z,2.52
2019-01-17T06:52:00.621Z,2.51
2019-01-17T06:53:00.853Z,2.52
2019-01-17T06:54:00.832Z,2.51
2019-01-17T06:55:00.813Z,2.59
2019-01-17T06:56:00.795Z,2.55
2019-01-17T06:57:00.778Z,2.55
2019-01-17T06:58:00.765Z,2.49
2019-01-17T06:59:00.742Z,2.55
2019-01-17T07:00:00.723Z,2.51
2019-01-17T07:01:00.709Z,2.54
2019-01-17T07:02:00.692Z,2.55
2019-01-17T07:03:00.676Z,2.52
2019-01-17T07:04:00.406Z,2.54
2019-01-17T07:05:00.644Z,2.55
2019-01-17T07:06:00.385Z,2.6
2019-01-17T07:07:00.629Z,2.58
2019-01-17T07:08:00.592Z,2.58
2019-01-17T07:09:00.567Z,2.52
2019-01-17T07:10:00.555Z,2.52
2019-01-17T07:11:00.539Z,2.54
2019-01-17T07:12:00.519Z,2.58
2019-01-17T07:13:00.498Z,2.51
2019-01-17T07:14:00.479Z,2.62
2019-01-17T07:15:00.460Z,2.55
2019-01-17T07:16:00.451Z,2.54
2019-01-17T07:17:00.426Z,2.55
2019-01-17T07:18:00.412Z,2.6
2019-01-17T07:19:00.390Z,2.58
2019-01-17T07:20:00.374Z,2.63
2019-01-17T07:21:00.109Z,2.63
2019-01-17T07:22:00.339Z,2.55
2019-01-17T07:23:00.323Z,2.52
2019-01-17T07:24:00.306Z,2.55
2019-01-17T07:25:00.289Z,2.54
2019-01-17T07:26:00.270Z,2.59
2019-01-17T07:27:00.256Z,2.52
2019-01-17T07:28:00.241Z,2.6
2019-01-17T07:29:00.216Z,2.58
2019-01-17T07:30:00.200Z,2.59
2019-01-17T07:31:00.186Z,2.63
2019-01-17T07:32:00.165Z,2.52
2019-01-17T07:33:00.151Z,2.55
2019-01-17T07:33:59.895Z,2.58
2019-01-17T07:35:00.186Z,2.55
2019-01-17T07:36:00.098Z,2.58
2019-01-17T07:37:00.077Z,2.55
2019-01-17T07:38:00.100Z,2.6
2019-01-17T07:39:00.044Z,2.58
2019-01-17T07:40:00.032Z,2.65
2019-01-17T07:41:00.013Z,2.7
2019-01-17T07:41:59.992Z,2.63
2019-01-17T07:42:59.729Z,2.62
2019-01-17T07:43:59.955Z,2.62
2019-01-17T07:44:59.695Z,2.63
2019-01-17T07:45:59.918Z,2.69
2019-01-17T07:46:59.901Z,2.76
2019-01-17T07:47:59.889Z,2.78
2019-01-17T07:48:59.869Z,2.72
2019-01-17T07:49:59.849Z,2.7
2019-01-17T07:50:59.835Z,2.83
2019-01-17T07:51:59.567Z,2.73
2019-01-17T07:52:59.548Z,2.81
2019-01-17T07:53:59.532Z,2.8
2019-01-17T07:54:59.764Z,2.78
2019-01-17T07:55:59.749Z,2.77
2019-01-17T07:56:59.729Z,2.77
2019-01-17T07:57:59.707Z,2.78
2019-01-17T07:58:59.694Z,2.78
2019-01-17T07:59:59.676Z,2.83
2019-01-17T08:00:59.669Z,2.81
2019-01-17T08:01:59.642Z,2.8
2019-01-17T08:02:59.376Z,2.83
2019-01-17T08:03:59.606Z,2.85
2019-01-17T08:04:59.588Z,2.81
2019-01-17T08:05:59.576Z,2.85
2019-01-17T08:07:01.623Z,2.83
2019-01-17T08:07:59.541Z,2.8
2019-01-17T08:08:59.521Z,2.83
2019-01-17T08:09:59.503Z,2.83
2019-01-17T08:10:59.482Z,2.8
2019-01-17T08:12:04.901Z,2.8
2019-01-17T08:12:59.450Z,2.81
2019-01-17T08:13:59.188Z,2.84
2019-01-17T08:14:59.168Z,2.81
2019-01-17T08:16:00.439Z,2.8
2019-01-17T08:16:59.397Z,2.76
2019-01-17T08:17:59.363Z,2.8
2019-01-17T08:18:59.354Z,2.78
2019-01-17T08:19:59.330Z,2.78
2019-01-17T08:20:59.477Z,2.8
2019-01-17T08:21:59.294Z,2.78
2019-01-17T08:22:59.282Z,2.77
2019-01-17T08:23:59.034Z,2.78
2019-01-17T08:24:58.996Z,2.8
2019-01-17T08:25:59.240Z,2.73
2019-01-17T08:26:59.211Z,2.7
2019-01-17T08:27:59.189Z,2.67
2019-01-17T08:28:58.927Z,2.72
2019-01-17T08:29:58.910Z,2.8
2019-01-17T08:30:59.138Z,2.8
2019-01-17T08:31:59.122Z,2.83
2019-01-17T08:32:59.101Z,2.76
2019-01-17T08:33:59.084Z,2.8
2019-01-17T08:34:58.824Z,2.72
2019-01-17T08:35:58.806Z,2.78
2019-01-17T08:36:59.036Z,2.84
2019-01-17T08:37:59.018Z,2.78
2019-01-17T08:38:58.998Z,2.83
2019-01-17T08:39:58.981Z,2.87
2019-01-17T08:40:58.718Z,2.87
2019-01-17T08:41:58.945Z,2.88
2019-01-17T08:42:58.932Z,2.84
2019-01-17T08:43:58.915Z,2.81
2019-01-17T08:44:58.894Z,2.96
2019-01-17T08:45:58.877Z,2.84
2019-01-17T08:46:58.858Z,2.78
2019-01-17T08:47:58.843Z,2.83
2019-01-17T08:48:58.830Z,2.85
2019-01-17T08:49:58.808Z,2.84
2019-01-17T08:50:58.543Z,2.93
2019-01-17T08:51:58.791Z,2.9
2019-01-17T08:52:58.756Z,2.85
2019-01-17T08:53:58.738Z,2.91
2019-01-17T08:54:58.721Z,2.95
2019-01-17T08:56:03.273Z,2.93
2019-01-17T08:56:58.686Z,2.93
2019-01-17T08:57:58.670Z,2.96
2019-01-17T08:58:58.654Z,2.95
2019-01-17T08:59:58.638Z,2.98
2019-01-17T09:00:58.627Z,2.9
2019-01-17T09:01:58.607Z,2.93
2019-01-17T09:02:58.585Z,2.9
2019-01-17T09:03:58.572Z,2.9
2019-01-17T09:04:58.548Z,2.93
2019-01-17T09:05:58.282Z,2.96
2019-01-17T09:06:58.512Z,2.98
2019-01-17T09:07:58.506Z,2.96
2019-01-17T09:08:58.478Z,3.02
2019-01-17T09:09:58.462Z,2.98
2019-01-17T09:10:58.446Z,3.08
2019-01-17T09:11:58.427Z,2.95
2019-01-17T09:12:58.411Z,3.08
2019-01-17T09:13:58.393Z,3.06
2019-01-17T09:14:58.381Z,2.95
2019-01-17T09:15:58.363Z,2.93
2019-01-17T09:16:58.341Z,3.05
2019-01-17T09:17:58.325Z,2.96
2019-01-17T09:18:58.308Z,3.02
2019-01-17T09:19:58.045Z,3.05
2019-01-17T09:20:58.275Z,3.09
2019-01-17T09:21:58.257Z,3.05
2019-01-17T09:22:58.253Z,3.05
2019-01-17T09:23:58.222Z,2.98
2019-01-17T09:24:58.207Z,2.99
2019-01-17T09:25:58.187Z,3.03
2019-01-17T09:26:58.172Z,3.05
2019-01-17T09:27:58.155Z,3.06
2019-01-17T09:28:58.139Z,3.05
2019-01-17T09:29:58.121Z,3.09
2019-01-17T09:30:57.856Z,3.17
2019-01-17T09:31:58.106Z,3.11
2019-01-17T09:32:58.070Z,3.13
2019-01-17T09:33:58.055Z,3.21
2019-01-17T09:34:58.035Z,3.19
2019-01-17T09:35:58.018Z,3.2
2019-01-17T09:36:58.005Z,3.24
2019-01-17T09:37:57.985Z,3.17
2019-01-17T09:38:57.966Z,3.21
2019-01-17T09:39:57.951Z,3.21
2019-01-17T09:40:57.685Z,3.21
2019-01-17T09:41:57.916Z,3.23
2019-01-17T09:42:57.899Z,3.23
2019-01-17T09:43:57.880Z,3.34
2019-01-17T09:44:57.864Z,3.34
2019-01-17T09:45:57.871Z,3.35
2019-01-17T09:46:57.583Z,3.37
2019-01-17T09:47:57.819Z,3.42
2019-01-17T09:48:57.796Z,3.37
2019-01-17T09:49:57.780Z,3.45
2019-01-17T09:50:57.764Z,3.48
2019-01-17T09:51:57.751Z,3.42
2019-01-17T09:52:57.730Z,3.45
2019-01-17T09:53:57.715Z,3.46
2019-01-17T09:54:57.695Z,3.39
2019-01-17T09:55:57.679Z,3.46
2019-01-17T09:56:57.669Z,3.49
2019-01-17T09:57:57.406Z,3.49
2019-01-17T09:58:57.628Z,3.48
2019-01-17T09:59:57.613Z,3.49
2019-01-17T10:00:57.801Z,3.53
2019-01-17T10:01:57.584Z,3.48
2019-01-17T10:02:57.565Z,3.45
2019-01-17T10:03:57.545Z,3.54
2019-01-17T10:04:57.530Z,3.53
2019-01-17T10:05:57.515Z,3.6
2019-01-17T10:06:57.500Z,3.61
2019-01-17T10:07:57.479Z,3.56
2019-01-17T10:08:57.463Z,3.6
2019-01-17T10:09:57.444Z,3.64
2019-01-17T10:10:57.430Z,3.69
2019-01-17T10:11:57.418Z,3.66
2019-01-17T10:12:57.153Z,3.67
2019-01-17T10:13:57.382Z,3.76
2019-01-17T10:14:57.363Z,3.82
2019-01-17T10:15:57.346Z,3.82
2019-01-17T10:16:57.336Z,3.79
2019-01-17T10:17:57.314Z,3.81
2019-01-17T10:18:57.049Z,3.81
2019-01-17T10:19:57.284Z,3.82
2019-01-17T10:20:57.267Z,3.9
2019-01-17T10:21:57.256Z,3.81
2019-01-17T10:22:57.229Z,3.85
2019-01-17T10:23:57.220Z,3.79
2019-01-17T10:24:57.211Z,3.82
2019-01-17T10:25:57.186Z,3.81
2019-01-17T10:26:57.165Z,3.85
2019-01-17T10:27:57.156Z,3.9
2019-01-17T10:28:57.134Z,3.79
2019-01-17T10:29:57.119Z,3.84
2019-01-17T10:30:57.102Z,3.78
2019-01-17T10:31:56.834Z,3.84
2019-01-17T10:32:57.068Z,3.81
2019-01-17T10:33:57.050Z,3.81
2019-01-17T10:34:56.787Z,3.82
2019-01-17T10:35:57.067Z,3.84
2019-01-17T10:36:56.504Z,3.79
2019-01-17T10:37:56.740Z,3.78
2019-01-17T10:38:56.970Z,3.86
2019-01-17T10:39:56.954Z,3.84
2019-01-17T10:40:56.940Z,3.84
2019-01-17T10:41:56.929Z,3.81
2019-01-17T10:42:56.907Z,3.82
2019-01-17T10:43:56.638Z,3.82
2019-01-17T10:44:56.871Z,3.79
2019-01-17T10:45:56.606Z,3.81
2019-01-17T10:46:56.839Z,3.79
2019-01-17T10:48:02.678Z,3.86
2019-01-17T10:48:56.807Z,3.82
2019-01-17T10:49:56.792Z,3.74
2019-01-17T10:50:56.776Z,3.82
2019-01-17T10:51:56.758Z,3.79
2019-01-17T10:52:56.740Z,3.74
2019-01-17T10:53:56.727Z,3.76
2019-01-17T10:54:56.707Z,3.76
2019-01-17T10:55:56.696Z,3.79
2019-01-17T10:56:56.677Z,3.64
2019-01-17T10:57:56.410Z,3.64
2019-01-17T10:58:56.643Z,3.72
2019-01-17T10:59:56.630Z,3.74
2019-01-17T11:00:56.760Z,3.76
2019-01-17T11:01:56.594Z,3.78
2019-01-17T11:02:56.581Z,3.78
2019-01-17T11:03:56.561Z,3.86
2019-01-17T11:04:56.296Z,3.97
2019-01-17T11:05:56.278Z,3.93
2019-01-17T11:06:56.509Z,4
2019-01-17T11:07:56.498Z,3.94
2019-01-17T11:08:56.483Z,3.94
2019-01-17T11:09:56.466Z,4.11
2019-01-17T11:10:56.445Z,4.1
2019-01-17T11:11:56.433Z,4.12
2019-01-17T11:12:56.418Z,4.12
2019-01-17T11:13:56.398Z,4.18
2019-01-17T11:14:56.380Z,4.18
2019-01-17T11:15:56.368Z,4.15
2019-01-17T11:16:56.348Z,4.15
2019-01-17T11:17:56.335Z,4.17
2019-01-17T11:18:56.319Z,4.2
2019-01-17T11:19:56.298Z,4.12
2019-01-17T11:20:56.284Z,4.12
2019-01-17T11:21:56.269Z,4.14
2019-01-17T11:22:56.251Z,4.14
2019-01-17T11:23:56.238Z,4.21
2019-01-17T11:24:56.219Z,4.12
2019-01-17T11:25:56.210Z,4.14
2019-01-17T11:26:55.945Z,4.18
2019-01-17T11:27:56.213Z,4.15
2019-01-17T11:28:56.167Z,4.18
2019-01-17T11:29:56.139Z,4.18
2019-01-17T11:30:55.880Z,4.22
2019-01-17T11:31:55.858Z,4.26
2019-01-17T11:32:55.889Z,4.17
2019-01-17T11:33:56.074Z,4.35
2019-01-17T11:34:56.058Z,4.33
2019-01-17T11:35:55.799Z,4.32
2019-01-17T11:36:56.029Z,4.46
2019-01-17T11:37:56.011Z,4.53
2019-01-17T11:38:55.997Z,4.54
2019-01-17T11:39:55.980Z,4.48
2019-01-17T11:40:55.963Z,4.51
2019-01-17T11:41:55.946Z,4.56
2019-01-17T11:42:55.933Z,4.5
2019-01-17T11:43:55.668Z,4.46
2019-01-17T11:44:55.901Z,4.32
2019-01-17T11:45:55.885Z,4.29
2019-01-17T11:46:55.873Z,4.3
2019-01-17T11:47:55.859Z,4.33
2019-01-17T11:48:55.836Z,4.22
2019-01-17T11:49:55.824Z,4.24
2019-01-17T11:50:55.806Z,4.12
2019-01-17T11:51:55.789Z,4.15
2019-01-17T11:52:55.773Z,4.18
2019-01-17T11:53:55.761Z,4.18
2019-01-17T11:54:55.741Z,4.15
2019-01-17T11:55:55.478Z,4.18
2019-01-17T11:56:55.709Z,4.17
2019-01-17T11:57:55.694Z,4.1
2019-01-17T11:59:02.335Z,4.07
2019-01-17T11:59:55.668Z,4.1
2019-01-17T12:00:55.647Z,4.03
2019-01-17T12:01:55.632Z,4.03
2019-01-17T12:02:55.370Z,4.11
2019-01-17T12:03:55.597Z,3.96
2019-01-17T12:04:55.583Z,3.94
2019-01-17T12:05:55.318Z,3.94
2019-01-17T12:06:55.553Z,3.96
2019-01-17T12:07:55.535Z,3.99
2019-01-17T12:08:55.522Z,4.02
2019-01-17T12:09:55.506Z,3.94
2019-01-17T12:10:55.489Z,3.86
2019-01-17T12:11:55.470Z,3.97
2019-01-17T12:12:55.457Z,3.94
2019-01-17T12:13:55.441Z,3.84
2019-01-17T12:14:55.424Z,3.84
2019-01-17T12:15:55.158Z,3.82
2019-01-17T12:16:55.390Z,3.86
2019-01-17T12:17:55.382Z,3.97
2019-01-17T12:18:55.116Z,3.97
2019-01-17T12:19:55.346Z,3.96
2019-01-17T12:20:55.329Z,3.94
2019-01-17T12:21:55.319Z,4
2019-01-17T12:22:55.055Z,3.96
2019-01-17T12:23:55.284Z,4.07
2019-01-17T12:24:55.273Z,4.11
2019-01-17T12:25:55.245Z,4.1
2019-01-17T12:26:55.232Z,4.1
2019-01-17T12:27:55.220Z,4.14
2019-01-17T12:28:54.959Z,4.12
2019-01-17T12:29:55.180Z,4.11
2019-01-17T12:30:55.174Z,4.21
2019-01-17T12:31:54.899Z,4.18
2019-01-17T12:32:55.134Z,4.17
2019-01-17T12:33:54.872Z,4.15
2019-01-17T12:34:55.102Z,4.18
2019-01-17T12:35:55.084Z,4.2
2019-01-17T12:36:55.166Z,4.24
2019-01-17T12:37:55.051Z,4.22
2019-01-17T12:38:55.038Z,4.21
2019-01-17T12:39:55.016Z,4.2
2019-01-17T12:40:55.000Z,4.15
2019-01-17T12:41:55.006Z,4.14
2019-01-17T12:42:54.976Z,4.18
2019-01-17T12:43:54.957Z,4.2
2019-01-17T12:44:54.947Z,4.26
2019-01-17T12:45:54.924Z,4.14
2019-01-17T12:46:54.910Z,4.2
2019-01-17T12:47:54.893Z,4.21
2019-01-17T12:48:54.876Z,4.22
2019-01-17T12:49:54.862Z,4.21
2019-01-17T12:50:54.845Z,4.22
2019-01-17T12:51:54.827Z,4.17
2019-01-17T12:52:54.811Z,4.18
2019-01-17T12:53:54.796Z,4.15
2019-01-17T12:54:54.781Z,4.17
2019-01-17T12:55:54.767Z,4.11
2019-01-17T12:56:58.866Z,4.1
2019-01-17T12:57:54.733Z,4.08
2019-01-17T12:58:54.723Z,4.02
2019-01-17T12:59:54.704Z,3.93
2019-01-17T13:00:54.688Z,4
2019-01-17T13:01:54.430Z,3.93
2019-01-17T13:02:54.648Z,3.93
2019-01-17T13:03:54.389Z,3.94
2019-01-17T13:04:54.621Z,3.9
2019-01-17T13:05:54.601Z,3.85
2019-01-17T13:06:54.338Z,3.86
2019-01-17T13:07:54.576Z,3.72
2019-01-17T13:08:54.553Z,3.76
2019-01-17T13:09:54.539Z,3.66
2019-01-17T13:10:54.273Z,3.72
2019-01-17T13:11:54.514Z,3.75
2019-01-17T13:12:54.489Z,3.64
2019-01-17T13:13:54.473Z,3.67
2019-01-17T13:14:54.455Z,3.71
2019-01-17T13:15:54.437Z,3.66
2019-01-17T13:16:54.424Z,3.61
2019-01-17T13:17:54.408Z,3.76
2019-01-17T13:18:54.390Z,3.69
2019-01-17T13:19:54.379Z,3.75
2019-01-17T13:20:54.357Z,3.64